createdAt,value
2018-09-22T00:01:52.938Z,99.90
2018-09-22T00:04:21.203Z,99.90
2018-09-22T00:06:49.458Z,99.90
2018-09-22T00:09:17.712Z,99.90
2018-09-22T00:11:45.977Z,99.90
2018-09-22T00:14:14.229Z,99.90
2018-09-22T00:16:42.494Z,99.90
2018-09-22T00:19:10.774Z,99.90
2018-09-22T00:21:39.029Z,99.90
2018-09-22T00:24:07.308Z,99.90
2018-09-22T00:26:35.564Z,99.90
2018-09-22T00:29:03.897Z,99.90
2018-09-22T00:31:32.190Z,99.90
2018-09-22T00:34:00.449Z,99.90
2018-09-22T00:36:28.707Z,99.90
2018-09-22T00:38:56.988Z,99.90
2018-09-22T00:41:25.253Z,99.90
2018-09-22T00:43:54.299Z,99.90
2018-09-22T00:46:22.545Z,99.90
2018-09-22T00:48:50.814Z,99.90
2018-09-22T00:51:19.087Z,99.90
2018-09-22T00:53:47.360Z,99.90
2018-09-22T00:56:15.691Z,99.90
2018-09-22T00:58:43.962Z,99.90
2018-09-22T01:01:12.256Z,99.90
2018-09-22T01:03:40.520Z,99.90
2018-09-22T01:06:08.870Z,99.90
2018-09-22T01:08:37.145Z,99.90
2018-09-22T01:11:05.454Z,99.90
2018-09-22T01:13:33.785Z,99.90
2018-09-22T01:16:02.096Z,99.90
2018-09-22T01:18:30.410Z,99.90
2018-09-22T01:20:58.649Z,99.90
2018-09-22T01:23:26.940Z,99.90
2018-09-22T01:25:55.315Z,99.90
2018-09-22T01:28:23.718Z,99.90
2018-09-22T01:30:52.195Z,99.90
2018-09-22T01:33:20.985Z,99.90
2018-09-22T01:35:49.268Z,99.90
2018-09-22T01:38:17.644Z,99.90
2018-09-22T01:40:45.905Z,99.90
2018-09-22T01:43:14.208Z,99.90
2018-09-22T01:45:42.683Z,99.90
2018-09-22T01:48:11.063Z,99.90
2018-09-22T01:50:39.345Z,99.90
2018-09-22T01:53:07.958Z,99.90
2018-09-22T01:55:36.221Z,99.90
2018-09-22T01:58:04.582Z,99.90
2018-09-22T02:00:32.870Z,99.90
2018-09-22T02:03:01.109Z,99.90
2018-09-22T02:05:29.370Z,99.90
2018-09-22T02:07:57.692Z,99.90
2018-09-22T02:10:25.982Z,99.90
2018-09-22T02:12:54.217Z,99.90
2018-09-22T02:15:22.504Z,99.90
2018-09-22T02:17:50.801Z,99.90
2018-09-22T02:20:19.167Z,99.90
2018-09-22T02:22:47.449Z,99.90
2018-09-22T02:25:15.840Z,99.90
2018-09-22T02:27:44.118Z,99.90
2018-09-22T02:30:12.427Z,99.90
2018-09-22T02:32:40.682Z,99.90
2018-09-22T02:35:08.977Z,99.90
2018-09-22T02:37:37.533Z,99.90
2018-09-22T02:40:06.026Z,99.90
2018-09-22T02:42:34.393Z,99.90
2018-09-22T02:45:02.656Z,99.90
2018-09-22T02:47:30.912Z,99.90
2018-09-22T02:49:59.184Z,99.90
2018-09-22T02:52:27.441Z,99.90
2018-09-22T02:54:55.713Z,99.90
2018-09-22T02:57:23.965Z,99.90
2018-09-22T02:59:52.350Z,99.90
2018-09-22T03:02:20.681Z,99.90
2018-09-22T03:04:48.966Z,99.90
2018-09-22T03:07:17.234Z,99.90
2018-09-22T03:09:45.546Z,99.90
2018-09-22T03:12:13.791Z,99.90
2018-09-22T03:14:42.062Z,99.90
2018-09-22T03:17:10.332Z,99.90
2018-09-22T03:19:38.657Z,99.90
2018-09-22T03:22:06.936Z,99.90
2018-09-22T03:24:35.218Z,99.90
2018-09-22T03:27:03.477Z,99.90
2018-09-22T03:29:31.746Z,99.90
2018-09-22T03:31:59.994Z,99.90
2018-09-22T03:34:28.320Z,99.90
2018-09-22T03:36:56.567Z,99.90
2018-09-22T03:39:24.858Z,99.90
2018-09-22T03:41:53.118Z,99.90
2018-09-22T03:44:21.378Z,99.90
2018-09-22T03:46:49.647Z,99.90
2018-09-22T03:49:17.893Z,99.90
2018-09-22T03:51:46.177Z,99.90
2018-09-22T03:54:14.468Z,99.90
2018-09-22T03:56:42.769Z,99.90
2018-09-22T03:59:11.023Z,99.90
2018-09-22T04:01:39.372Z,99.90
2018-09-22T04:04:07.656Z,99.90
2018-09-22T04:06:36.033Z,99.90
2018-09-22T04:09:05.629Z,99.90
2018-09-22T04:11:33.898Z,99.90
2018-09-22T04:14:02.201Z,99.90
2018-09-22T04:16:30.510Z,99.90
2018-09-22T04:18:58.811Z,99.90
2018-09-22T04:21:27.074Z,99.90
2018-09-22T04:23:55.321Z,99.90
2018-09-22T04:26:23.670Z,99.90
2018-09-22T04:28:51.957Z,99.90
2018-09-22T04:31:20.867Z,99.90
2018-09-22T04:33:49.154Z,99.90
2018-09-22T04:36:17.435Z,99.90
2018-09-22T04:38:45.785Z,99.90
2018-09-22T04:41:14.066Z,99.90
2018-09-22T04:43:42.306Z,99.90
2018-09-22T04:46:10.651Z,99.90
2018-09-22T04:48:38.931Z,99.90
2018-09-22T04:51:07.199Z,99.90
2018-09-22T04:53:35.551Z,99.90
2018-09-22T04:56:03.816Z,99.90
2018-09-22T04:58:32.098Z,99.90
2018-09-22T05:01:00.406Z,99.90
2018-09-22T05:03:28.704Z,99.90
2018-09-22T05:05:56.970Z,99.90
2018-09-22T05:08:25.236Z,99.90
2018-09-22T05:10:53.520Z,99.90
2018-09-22T05:13:21.889Z,99.90
2018-09-22T05:15:50.185Z,99.90
2018-09-22T05:18:18.467Z,99.90
2018-09-22T05:20:46.816Z,99.90
2018-09-22T05:23:15.086Z,99.90
2018-09-22T05:25:43.349Z,99.90
2018-09-22T05:28:11.665Z,99.90
2018-09-22T05:30:40.029Z,99.90
2018-09-22T05:33:08.409Z,99.90
2018-09-22T05:35:36.690Z,99.90
2018-09-22T05:38:05.055Z,99.90
2018-09-22T05:40:33.448Z,99.90
2018-09-22T05:43:01.702Z,99.90
2018-09-22T05:45:30.000Z,99.90
2018-09-22T05:47:58.285Z,99.90
2018-09-22T05:50:26.562Z,99.90
2018-09-22T05:52:54.953Z,99.90
2018-09-22T05:55:23.213Z,99.90
2018-09-22T05:57:51.595Z,99.90
2018-09-22T06:00:21.197Z,99.90
2018-09-22T06:02:49.494Z,99.90
2018-09-22T06:05:17.762Z,99.90
2018-09-22T06:07:46.050Z,99.90
2018-09-22T06:10:14.514Z,99.90
2018-09-22T06:12:42.896Z,99.90
2018-09-22T06:15:11.208Z,99.90
2018-09-22T06:17:39.482Z,99.90
2018-09-22T06:20:07.763Z,99.90
2018-09-22T06:22:36.210Z,99.90
2018-09-22T06:25:04.526Z,99.90
2018-09-22T06:27:32.803Z,99.90
2018-09-22T06:30:01.135Z,99.90
2018-09-22T06:32:29.426Z,99.90
2018-09-22T06:34:57.678Z,99.90
2018-09-22T06:37:25.974Z,99.90
2018-09-22T06:39:54.210Z,99.90
2018-09-22T06:42:22.490Z,99.90
2018-09-22T06:44:50.755Z,99.90
2018-09-22T06:47:20.125Z,99.90
2018-09-22T06:50:04.381Z,99.90
2018-09-22T06:52:32.726Z,99.90
2018-09-22T06:55:01.095Z,99.90
2018-09-22T06:57:29.343Z,99.90
2018-09-22T06:59:57.606Z,99.90
2018-09-22T07:02:25.890Z,99.90
2018-09-22T07:04:54.154Z,99.90
2018-09-22T07:07:22.452Z,99.90
2018-09-22T07:09:50.717Z,99.90
2018-09-22T07:12:19.011Z,99.90
2018-09-22T07:14:47.258Z,99.90
2018-09-22T07:17:15.591Z,99.90
2018-09-22T07:19:43.846Z,99.90
2018-09-22T07:22:17.534Z,99.90
2018-09-22T07:24:45.807Z,99.90
2018-09-22T07:27:14.090Z,99.90
2018-09-22T07:29:42.412Z,99.90
2018-09-22T07:32:10.842Z,99.90
2018-09-22T07:34:39.158Z,99.90
2018-09-22T07:37:07.449Z,99.90
2018-09-22T07:39:35.826Z,99.90
2018-09-22T07:42:04.146Z,99.90
2018-09-22T07:44:32.466Z,99.90
2018-09-22T07:47:00.795Z,99.90
2018-09-22T07:49:29.176Z,99.90
2018-09-22T07:51:57.552Z,99.90
2018-09-22T07:54:25.910Z,99.90
2018-09-22T07:56:54.538Z,99.90
2018-09-22T07:59:23.209Z,99.90
2018-09-22T08:01:51.777Z,99.90
2018-09-22T08:04:20.251Z,99.90
2018-09-22T08:06:48.734Z,99.90
2018-09-22T08:09:17.173Z,99.90
2018-09-22T08:11:45.731Z,99.90
2018-09-22T08:14:14.073Z,99.90
2018-09-22T08:16:42.484Z,99.90
2018-09-22T08:19:10.720Z,99.90
2018-09-22T08:21:38.999Z,99.90
2018-09-22T08:24:07.428Z,99.90
2018-09-22T08:26:36.067Z,99.90
2018-09-22T08:29:04.486Z,99.90
2018-09-22T08:31:32.811Z,99.90
2018-09-22T08:34:01.090Z,99.90
2018-09-22T08:36:29.589Z,99.90
2018-09-22T08:38:57.700Z,99.90
2018-09-22T08:41:26.188Z,99.90
2018-09-22T08:43:54.509Z,99.90
2018-09-22T08:46:22.762Z,99.90
2018-09-22T08:48:51.121Z,99.90
2018-09-22T08:51:19.593Z,99.90
2018-09-22T08:53:47.857Z,99.90
2018-09-22T08:56:16.159Z,99.90
2018-09-22T08:58:44.555Z,99.90
2018-09-22T09:01:13.016Z,99.90
2018-09-22T09:03:41.300Z,99.90
2018-09-22T09:06:09.676Z,99.90
2018-09-22T09:08:38.362Z,99.90
2018-09-22T09:11:06.641Z,99.90
2018-09-22T09:13:34.895Z,99.90
2018-09-22T09:16:04.177Z,99.90
2018-09-22T09:18:32.497Z,99.90
2018-09-22T09:21:00.758Z,99.90
2018-09-22T09:23:29.032Z,99.90
2018-09-22T09:25:57.285Z,99.90
2018-09-22T09:28:25.606Z,99.90
2018-09-22T09:30:53.844Z,99.90
2018-09-22T09:33:22.121Z,99.90
2018-09-22T09:35:50.681Z,99.90
2018-09-22T09:38:19.023Z,99.90
2018-09-22T09:40:47.397Z,99.90
2018-09-22T09:43:15.861Z,99.90
2018-09-22T09:45:44.179Z,99.90
2018-09-22T09:48:12.555Z,99.90
2018-09-22T09:50:40.903Z,99.90
2018-09-22T09:53:09.219Z,99.90
2018-09-22T09:55:37.564Z,99.90
2018-09-22T09:58:06.088Z,99.90
2018-09-22T10:00:39.958Z,99.90
2018-09-22T10:03:08.360Z,99.90
2018-09-22T10:05:36.618Z,99.90
2018-09-22T10:08:05.222Z,99.90
2018-09-22T10:10:33.651Z,99.90
2018-09-22T10:13:02.312Z,99.90
2018-09-22T10:15:30.580Z,99.90
2018-09-22T10:17:59.903Z,99.90
2018-09-22T10:20:28.206Z,99.90
2018-09-22T10:22:56.579Z,99.90
2018-09-22T10:25:24.895Z,99.90
2018-09-22T10:27:53.184Z,99.90
2018-09-22T10:30:21.518Z,99.90
2018-09-22T10:32:49.899Z,99.90
2018-09-22T10:35:18.277Z,99.90
2018-09-22T10:37:46.651Z,99.90
2018-09-22T10:40:14.977Z,99.90
2018-09-22T10:42:43.234Z,99.90
2018-09-22T10:45:11.611Z,99.90
2018-09-22T10:47:39.900Z,99.90
2018-09-22T10:50:08.300Z,99.90
2018-09-22T10:52:36.730Z,99.90
2018-09-22T10:55:04.987Z,99.90
2018-09-22T10:57:33.278Z,99.90
2018-09-22T11:00:01.813Z,99.90
2018-09-22T11:02:30.085Z,99.90
2018-09-22T11:04:58.512Z,99.90
2018-09-22T11:07:26.807Z,99.90
2018-09-22T11:09:55.229Z,99.90
2018-09-22T11:12:23.518Z,99.90
2018-09-22T11:14:51.787Z,99.90
2018-09-22T11:17:20.062Z,99.90
2018-09-22T11:19:48.343Z,99.90
2018-09-22T11:22:16.602Z,99.90
2018-09-22T11:24:44.893Z,99.90
2018-09-22T11:27:13.171Z,99.90
2018-09-22T11:29:41.462Z,99.90
2018-09-22T11:32:09.742Z,99.90
2018-09-22T11:34:38.054Z,99.90
2018-09-22T11:37:06.719Z,99.90
2018-09-22T11:39:35.032Z,99.90
2018-09-22T11:42:03.326Z,99.90
2018-09-22T11:44:31.614Z,99.90
2018-09-22T11:46:59.875Z,99.90
2018-09-22T11:49:28.152Z,99.90
2018-09-22T11:51:56.409Z,99.90
2018-09-22T11:54:24.733Z,99.90
2018-09-22T11:56:52.973Z,99.90
2018-09-22T11:59:21.266Z,99.90
2018-09-22T12:01:49.617Z,99.90
2018-09-22T12:04:17.865Z,99.90
2018-09-22T12:06:47.303Z,99.90
2018-09-22T12:09:15.596Z,99.90
2018-09-22T12:11:43.911Z,99.90
2018-09-22T12:14:12.440Z,99.90
2018-09-22T12:16:40.798Z,99.90
2018-09-22T12:19:09.238Z,99.90
2018-09-22T12:21:37.485Z,99.90
2018-09-22T12:24:05.799Z,99.90
2018-09-22T12:26:34.150Z,99.90
2018-09-22T12:29:02.470Z,99.90
2018-09-22T12:31:30.871Z,99.90
2018-09-22T12:33:59.121Z,99.90
2018-09-22T12:36:27.421Z,99.90
2018-09-22T12:38:55.782Z,99.90
2018-09-22T12:41:24.066Z,99.90
2018-09-22T12:43:52.313Z,99.90
2018-09-22T12:46:20.590Z,99.90
2018-09-22T12:48:48.842Z,99.90
2018-09-22T12:51:17.230Z,99.90
2018-09-22T12:53:45.629Z,99.90
2018-09-22T12:56:13.837Z,99.90
2018-09-22T12:58:42.141Z,99.90
2018-09-22T13:01:10.609Z,99.90
2018-09-22T13:03:38.934Z,99.90
2018-09-22T13:06:07.207Z,99.90
2018-09-22T13:08:35.526Z,99.90
2018-09-22T13:11:03.974Z,99.90
2018-09-22T13:13:32.713Z,99.90
2018-09-22T13:16:01.030Z,99.90
2018-09-22T13:18:29.388Z,99.90
2018-09-22T13:20:57.776Z,99.90
2018-09-22T13:23:26.380Z,99.90
2018-09-22T13:25:55.169Z,99.90
2018-09-22T13:28:23.770Z,99.90
2018-09-22T13:30:52.046Z,99.90
2018-09-22T13:33:20.459Z,99.90
2018-09-22T13:35:48.746Z,99.90
2018-09-22T13:38:17.003Z,99.90
2018-09-22T13:40:45.283Z,99.90
2018-09-22T13:43:13.535Z,99.90
2018-09-22T13:45:41.860Z,99.90
2018-09-22T13:48:10.480Z,99.90
2018-09-22T13:50:38.775Z,99.90
2018-09-22T13:53:07.059Z,99.90
2018-09-22T13:55:35.379Z,99.90
2018-09-22T13:58:03.878Z,99.90
2018-09-22T14:00:32.239Z,99.90
2018-09-22T14:03:00.543Z,99.90
2018-09-22T14:05:28.836Z,99.90
2018-09-22T14:07:57.141Z,99.90
2018-09-22T14:10:25.489Z,99.90
2018-09-22T14:12:53.738Z,99.90
2018-09-22T14:15:22.051Z,99.90
2018-09-22T14:17:50.348Z,99.90
2018-09-22T14:20:18.661Z,99.90
2018-09-22T14:22:46.950Z,99.90
2018-09-22T14:25:15.201Z,99.90
2018-09-22T14:27:43.495Z,99.90
2018-09-22T14:30:11.818Z,99.90
2018-09-22T14:32:40.179Z,99.90
2018-09-22T14:35:08.451Z,99.90
2018-09-22T14:37:36.798Z,99.90
2018-09-22T14:40:06.658Z,99.90
2018-09-22T14:42:35.208Z,99.90
2018-09-22T14:45:03.529Z,99.90
2018-09-22T14:47:31.869Z,99.90
2018-09-22T14:50:00.118Z,99.90
2018-09-22T14:52:28.441Z,99.90
2018-09-22T14:54:56.708Z,99.90
2018-09-22T14:57:25.383Z,99.90
2018-09-22T14:59:53.638Z,99.90
2018-09-22T15:02:21.909Z,99.90
2018-09-22T15:04:50.166Z,99.90
2018-09-22T15:07:18.497Z,99.80
2018-09-22T15:09:46.971Z,99.90
2018-09-22T15:12:15.263Z,99.90
2018-09-22T15:14:43.640Z,99.90
2018-09-22T15:17:11.914Z,99.90
2018-09-22T15:19:40.290Z,99.90
2018-09-22T15:22:08.643Z,99.90
2018-09-22T15:24:37.462Z,99.40
2018-09-22T15:27:05.719Z,99.50
2018-09-22T15:29:34.006Z,98.90
2018-09-22T15:32:02.291Z,99.00
2018-09-22T15:34:30.567Z,99.30
2018-09-22T15:36:58.954Z,99.30
2018-09-22T15:39:27.278Z,99.60
2018-09-22T15:41:55.523Z,99.60
2018-09-22T15:44:23.830Z,99.60
2018-09-22T15:46:52.082Z,99.70
2018-09-22T15:49:20.438Z,99.90
2018-09-22T15:51:48.687Z,99.90
2018-09-22T15:54:17.017Z,99.90
2018-09-22T15:56:45.294Z,99.90
2018-09-22T15:59:13.769Z,99.30
2018-09-22T16:01:42.139Z,99.60
2018-09-22T16:04:10.518Z,99.60
2018-09-22T16:06:38.795Z,99.60
2018-09-22T16:09:08.197Z,99.70
2018-09-22T16:11:36.566Z,98.50
2018-09-22T16:14:04.956Z,98.10
2018-09-22T16:16:33.326Z,98.70
2018-09-22T16:19:01.728Z,98.70
2018-09-22T16:21:30.006Z,97.50
2018-09-22T16:23:58.287Z,97.70
2018-09-22T16:26:26.657Z,97.50
2018-09-22T16:28:54.994Z,97.70
2018-09-22T16:31:23.286Z,97.50
2018-09-22T16:33:51.598Z,97.50
2018-09-22T16:36:20.087Z,97.50
2018-09-22T16:38:48.444Z,97.50
2018-09-22T16:41:16.695Z,97.60
2018-09-22T16:43:44.998Z,97.60
2018-09-22T16:46:13.462Z,98.00
2018-09-22T16:48:41.860Z,98.40
2018-09-22T16:51:10.214Z,98.60
2018-09-22T16:53:38.518Z,98.80
2018-09-22T16:56:06.880Z,99.10
2018-09-22T16:58:35.224Z,99.20
2018-09-22T17:01:03.553Z,99.40
2018-09-22T17:03:31.822Z,99.90
2018-09-22T17:06:00.086Z,99.90
2018-09-22T17:08:28.374Z,99.90
2018-09-22T17:10:56.694Z,99.90
2018-09-22T17:13:25.145Z,99.90
2018-09-22T17:15:53.519Z,99.90
2018-09-22T17:18:21.859Z,99.90
2018-09-22T17:20:50.160Z,99.90
2018-09-22T17:23:18.450Z,99.90
2018-09-22T17:25:46.840Z,99.90
2018-09-22T17:28:15.190Z,99.90
2018-09-22T17:30:43.460Z,99.90
2018-09-22T17:33:11.766Z,99.90
2018-09-22T17:35:40.054Z,99.90
2018-09-22T17:38:08.318Z,99.90
2018-09-22T17:40:36.740Z,99.90
2018-09-22T17:43:05.021Z,99.90
2018-09-22T17:45:33.281Z,99.90
2018-09-22T17:48:01.649Z,99.90
2018-09-22T17:50:30.124Z,99.90
2018-09-22T17:52:58.390Z,99.90
2018-09-22T17:55:26.912Z,99.90
2018-09-22T17:57:55.251Z,99.90
2018-09-22T18:00:23.718Z,99.90
2018-09-22T18:02:53.090Z,99.90
2018-09-22T18:05:21.464Z,99.90
2018-09-22T18:07:49.812Z,99.90
2018-09-22T18:10:18.160Z,99.90
2018-09-22T18:12:46.568Z,99.90
2018-09-22T18:15:14.950Z,99.90
2018-09-22T18:17:43.215Z,99.90
2018-09-22T18:20:11.502Z,99.90
2018-09-22T18:22:39.885Z,99.90
2018-09-22T18:25:08.195Z,99.90
2018-09-22T18:27:36.471Z,99.90
2018-09-22T18:30:05.026Z,99.90
2018-09-22T18:32:33.337Z,99.90
2018-09-22T18:35:01.880Z,99.90
2018-09-22T18:37:30.167Z,99.90
2018-09-22T18:39:58.578Z,99.90
2018-09-22T18:42:26.833Z,99.90
2018-09-22T18:44:55.109Z,99.90
2018-09-22T18:47:23.686Z,99.90
2018-09-22T18:49:52.062Z,99.90
2018-09-22T18:52:20.317Z,99.90
2018-09-22T18:54:48.626Z,99.90
2018-09-22T18:57:17.102Z,99.90
2018-09-22T18:59:45.475Z,99.90
2018-09-22T19:02:13.755Z,99.90
2018-09-22T19:04:42.035Z,99.90
2018-09-22T19:07:10.512Z,99.90
2018-09-22T19:09:38.958Z,99.90
2018-09-22T19:12:07.264Z,99.90
2018-09-22T19:14:40.910Z,99.90
2018-09-22T19:18:12.506Z,99.90
2018-09-22T19:20:46.239Z,99.90
2018-09-22T19:23:19.274Z,99.90
2018-09-22T19:25:51.127Z,99.90
2018-09-22T19:28:23.906Z,99.90
2018-09-22T19:30:53.694Z,99.90
2018-09-22T19:33:32.355Z,99.90
2018-09-22T19:36:06.593Z,99.90
2018-09-22T19:38:38.528Z,99.90
2018-09-22T19:41:17.519Z,99.90
2018-09-22T19:43:50.749Z,99.90
2018-09-22T19:46:20.955Z,99.90
2018-09-22T19:48:54.909Z,99.90
2018-09-22T19:51:24.890Z,99.90
2018-09-22T19:53:54.302Z,99.90
2018-09-22T19:56:22.650Z,99.90
2018-09-22T19:58:51.029Z,99.90
2018-09-22T20:01:19.394Z,99.90
2018-09-22T20:03:47.671Z,99.90
2018-09-22T20:06:16.167Z,99.90
2018-09-22T20:08:44.651Z,99.90
2018-09-22T20:11:27.532Z,99.90
2018-09-22T20:13:55.858Z,99.90
2018-09-22T20:16:24.210Z,99.90
2018-09-22T20:18:52.491Z,99.90
2018-09-22T20:21:20.806Z,99.90
2018-09-22T20:23:49.159Z,99.90
2018-09-22T20:26:17.521Z,99.90
2018-09-22T20:28:45.781Z,99.90
2018-09-22T20:31:14.204Z,99.90
2018-09-22T20:33:42.583Z,99.90
2018-09-22T20:36:10.869Z,99.90
2018-09-22T20:38:39.127Z,99.90
2018-09-22T20:41:07.415Z,99.90
2018-09-22T20:43:35.769Z,99.90
2018-09-22T20:46:04.079Z,99.90
2018-09-22T20:48:32.439Z,99.90
2018-09-22T20:51:00.726Z,99.90
2018-09-22T20:56:11.903Z,99.90
2018-09-22T20:58:40.195Z,99.90
2018-09-22T21:01:08.794Z,99.90
2018-09-22T21:03:37.164Z,99.90
2018-09-22T21:06:05.645Z,99.90
2018-09-22T21:08:33.938Z,99.90
2018-09-22T21:11:02.222Z,99.90
2018-09-22T21:13:30.505Z,99.90
2018-09-22T21:15:58.894Z,99.90
2018-09-22T21:18:27.193Z,99.90
2018-09-22T21:20:55.484Z,99.90
2018-09-22T21:23:23.795Z,99.90
2018-09-22T21:25:52.173Z,99.90
2018-09-22T21:28:20.460Z,99.90
2018-09-22T21:30:48.779Z,99.90
2018-09-22T21:33:17.311Z,99.90
2018-09-22T21:35:45.699Z,99.90
2018-09-22T21:38:13.947Z,99.90
2018-09-22T21:40:42.251Z,99.90
2018-09-22T21:43:10.541Z,99.90
2018-09-22T21:45:38.874Z,99.90
2018-09-22T21:48:07.181Z,99.90
2018-09-22T21:50:35.577Z,99.90
2018-09-22T21:53:03.890Z,99.90
2018-09-22T21:55:32.174Z,99.90
2018-09-22T21:58:01.317Z,99.90
2018-09-22T22:00:29.599Z,99.90
2018-09-22T22:02:58.005Z,99.90
2018-09-22T22:05:26.280Z,99.90
2018-09-22T22:07:54.551Z,99.90
2018-09-22T22:10:22.806Z,99.90
2018-09-22T22:12:51.102Z,99.90
2018-09-22T22:15:19.538Z,99.90
2018-09-22T22:17:47.839Z,99.90
2018-09-22T22:20:16.322Z,99.90
2018-09-22T22:22:44.596Z,99.90
2018-09-22T22:25:12.976Z,99.90
2018-09-22T22:27:41.246Z,99.90
2018-09-22T22:30:10.554Z,99.90
2018-09-22T22:32:38.882Z,99.90
2018-09-22T22:35:07.234Z,99.90
2018-09-22T22:37:35.503Z,99.90
2018-09-22T22:40:03.790Z,99.90
2018-09-22T22:42:32.065Z,99.90
2018-09-22T22:45:00.330Z,99.90
2018-09-22T22:47:28.707Z,99.90
2018-09-22T22:49:56.981Z,99.90
2018-09-22T22:52:25.363Z,99.90
2018-09-22T22:54:53.656Z,99.90
2018-09-22T22:57:21.934Z,99.90
2018-09-22T22:59:50.187Z,99.90
2018-09-22T23:02:18.534Z,99.90
2018-09-22T23:04:46.806Z,99.90
2018-09-22T23:07:15.094Z,99.90
2018-09-22T23:09:43.353Z,99.90
2018-09-22T23:12:11.789Z,99.90
2018-09-22T23:14:40.054Z,99.90
2018-09-22T23:17:08.360Z,99.90
2018-09-22T23:19:36.639Z,99.90
2018-09-22T23:22:05.050Z,99.90
2018-09-22T23:24:33.385Z,99.90
2018-09-22T23:27:01.682Z,99.90
2018-09-22T23:29:29.961Z,99.90
2018-09-22T23:31:58.239Z,99.90
2018-09-22T23:34:26.698Z,99.90
2018-09-22T23:36:54.986Z,99.90
2018-09-22T23:39:23.252Z,99.90
2018-09-22T23:41:51.554Z,99.90
2018-09-22T23:44:19.850Z,99.90
2018-09-22T23:46:48.137Z,99.90
2018-09-22T23:49:16.461Z,99.90
2018-09-22T23:51:44.750Z,99.90
2018-09-22T23:54:13.008Z,99.90
2018-09-22T23:56:41.397Z,99.90
2018-09-22T23:59:09.684Z,99.90
